AFR274 LFPG-RJTT
Flight info
| Callsign | AFR274 |
|---|---|
| Flight time | N/A |
| Altitude | 31000 |
| Route | LANVI DCT BEGAR DCT TRA DCT GAMSA DCT BIRGI/N0486F330 DCT INGID DCT SETAL DCT INSAX DCT GOTAR DCT MOPUG DCT ASNEL DCT UDROS UN743 GAKSU UT310 SIN UN644 ROLIN DCT FOQUS DCT DF DCT TBS N61 DEDON L850 ADEKI DCT RASAM/N0483F350 L88 METKA B476 TIMGA A480 OTBOR/K0887F350 N147 ELAHA Z621 ARBOL M610 RULAD/K0874S1070 A343 POSOT B215 FKG W188 RIMDU/K0883S1130 W188 LIKMI W270 DKO W69 HUR B339 LADIX W34 VAPGU W100 ORAVA W201 UNSEK A326 DONVO G597 AGAVO/N0473F390 Y644 EGOBA G597 LANAT Y71 XAC |
| Aircraft | B77W/H-SDE2E3FGHIJ3J5M1P2RWXYZ/LB1D1 |
Departure
| Time | 2026-05-05 20:47 |
|---|---|
| Airport | Charles de Gaulle International Airport (LFPG) |
Arrival
| Time | N/A |
|---|---|
| Airport | Tokyo Haneda International Airport (RJTT) |
| Time | Latitude | Longitude | Altitude | Speed | Heading |
|---|---|---|---|---|---|
| 2026-05-05 20:22 | 49.00141 | 2.57920 | 359 ft | 0 kts | 355° |
| 2026-05-05 20:32 | 49.00153 | 2.57918 | 359 ft | 0 kts | 355° |
| 2026-05-05 20:36 | 49.00139 | 2.57920 | 359 ft | 4 kts | 0° |
| 2026-05-05 20:36 | 49.00112 | 2.57917 | 359 ft | 4 kts | 13° |
| 2026-05-05 20:36 | 49.00087 | 2.57904 | 359 ft | 4 kts | 33° |
| 2026-05-05 20:36 | 49.00070 | 2.57877 | 359 ft | 4 kts | 78° |
| 2026-05-05 20:37 | 49.00069 | 2.57870 | 359 ft | 0 kts | 85° |
| 2026-05-05 20:40 | 49.00071 | 2.57915 | 359 ft | 11 kts | 85° |
| 2026-05-05 20:41 | 49.00079 | 2.58059 | 359 ft | 14 kts | 85° |
| 2026-05-05 20:41 | 49.00087 | 2.58205 | 359 ft | 14 kts | 85° |
| 2026-05-05 20:41 | 49.00049 | 2.58316 | 359 ft | 13 kts | 168° |
| 2026-05-05 20:41 | 49.00005 | 2.58214 | 359 ft | 13 kts | 266° |
| 2026-05-05 20:42 | 48.99998 | 2.58066 | 359 ft | 16 kts | 265° |
| 2026-05-05 20:42 | 48.99989 | 2.57886 | 359 ft | 17 kts | 265° |
| 2026-05-05 20:42 | 48.99978 | 2.57704 | 359 ft | 17 kts | 265° |
| 2026-05-05 20:42 | 48.99968 | 2.57523 | 359 ft | 17 kts | 265° |
| 2026-05-05 20:43 | 48.99958 | 2.57335 | 359 ft | 19 kts | 265° |
| 2026-05-05 20:43 | 48.99947 | 2.57135 | 359 ft | 19 kts | 265° |
| 2026-05-05 20:43 | 48.99937 | 2.56947 | 359 ft | 16 kts | 265° |
| 2026-05-05 20:43 | 48.99928 | 2.56781 | 359 ft | 16 kts | 265° |
| 2026-05-05 20:44 | 48.99919 | 2.56613 | 359 ft | 16 kts | 265° |
| 2026-05-05 20:44 | 48.99911 | 2.56443 | 359 ft | 16 kts | 265° |
| 2026-05-05 20:44 | 48.99903 | 2.56277 | 359 ft | 16 kts | 266° |
| 2026-05-05 20:44 | 48.99894 | 2.56108 | 359 ft | 16 kts | 265° |
| 2026-05-05 20:45 | 48.99866 | 2.55805 | 359 ft | 15 kts | 201° |
| 2026-05-05 20:45 | 48.99764 | 2.55806 | 359 ft | 15 kts | 176° |
| 2026-05-05 20:45 | 48.99662 | 2.55818 | 359 ft | 13 kts | 174° |
| 2026-05-05 20:46 | 48.99606 | 2.55910 | 358 ft | 13 kts | 94° |
| 2026-05-05 20:46 | 48.99617 | 2.56152 | 361 ft | 45 kts | 85° |
| 2026-05-05 20:46 | 48.99659 | 2.56932 | 357 ft | 104 kts | 86° |
| 2026-05-05 20:46 | 48.99734 | 2.58303 | 360 ft | 154 kts | 85° |
| 2026-05-05 20:47 | 48.99831 | 2.60140 | 362 ft | 192 kts | 86° |
| 2026-05-05 20:47 | 48.99919 | 2.62222 | 664 ft | 194 kts | 87° |
| 2026-05-05 20:47 | 49.00014 | 2.64281 | 1065 ft | 199 kts | 85° |
| 2026-05-05 20:47 | 49.00139 | 2.66409 | 1438 ft | 204 kts | 85° |
| 2026-05-05 20:48 | 49.00265 | 2.68572 | 1852 ft | 206 kts | 85° |
| 2026-05-05 20:48 | 49.00393 | 2.70808 | 2082 ft | 221 kts | 86° |
| 2026-05-05 20:48 | 49.00519 | 2.73233 | 2240 ft | 240 kts | 86° |
| 2026-05-05 20:48 | 49.00655 | 2.75877 | 2474 ft | 257 kts | 86° |
| 2026-05-05 20:49 | 49.00733 | 2.78628 | 2913 ft | 264 kts | 95° |
| 2026-05-05 20:49 | 49.00472 | 2.81420 | 3454 ft | 268 kts | 101° |
| 2026-05-05 20:49 | 49.00123 | 2.84222 | 4091 ft | 270 kts | 101° |
| 2026-05-05 20:49 | 48.99791 | 2.87055 | 4716 ft | 273 kts | 100° |
| 2026-05-05 20:50 | 48.99475 | 2.89922 | 5318 ft | 276 kts | 99° |
| 2026-05-05 20:50 | 48.99166 | 2.92817 | 5905 ft | 279 kts | 99° |
| 2026-05-05 20:50 | 48.98856 | 2.95747 | 6485 ft | 282 kts | 99° |
| 2026-05-05 20:50 | 48.98584 | 2.98713 | 7049 ft | 284 kts | 98° |
| 2026-05-05 20:51 | 48.98337 | 3.01719 | 7605 ft | 287 kts | 97° |
| 2026-05-05 20:51 | 48.98090 | 3.04750 | 8147 ft | 290 kts | 97° |
| 2026-05-05 20:51 | 48.97840 | 3.07805 | 8679 ft | 293 kts | 97° |
| 2026-05-05 20:51 | 48.97585 | 3.10896 | 9202 ft | 295 kts | 97° |